Home > Products > Valid Products > TAF

000
FTUS43 KSGF 241300 AAA
TAFSGF
TAF AMD
KSGF 241318Z 2413/2512 15014KT 6SM -SHRA BKN025 OVC050
      WS020/19045KT
      TEMPO 2413/2415 3SM SHRA BR BKN009 OVC025
     FM241600 17013G22KT P6SM -SHRA BKN035 OVC080
     FM241800 16014G22KT 6SM -SHRA BR VCTS OVC025CB
      TEMPO 2423/2503 4SM -TSRA OVC020CB
     FM250300 22008KT P6SM -SHRA VCTS BKN005 OVC020CB
     FM250700 18006KT P6SM FEW030 BKN250=



000
FTUS43 KSGF 241100 CCA
TAFJLN
TAF COR
KJLN 241157Z 2412/2512 14012KT P6SM -SHRA BKN040 BKN050
      TEMPO 2412/2416 4SM BR BKN012
     FM241800 15011KT 6SM -SHRA BR VCTS SCT020 OVC035CB
      TEMPO 2422/2501 2SM -TSRA OVC020CB
     FM250100 20006KT 5SM -SHRA VCTS BKN012CB OVC030
     FM250500 18006KT P6SM FEW040 SCT250=



000
FTUS43 KSGF 241100
TAFSGF
TAF
KSGF 241130Z 2412/2512 15014KT P6SM -SHRA BKN025 OVC050
      WS020/19045KT
     FM241500 17013G22KT P6SM -SHRA BKN035 OVC080
     FM241800 16014G22KT 6SM -SHRA BR VCTS OVC025CB
      TEMPO 2423/2503 4SM -TSRA OVC020CB
     FM250300 22008KT P6SM -SHRA VCTS BKN005 OVC020CB
     FM250700 18006KT P6SM FEW030 BKN250=



000
FTUS43 KSGF 241100
TAFJLN
TAF
KJLN 241130Z 2412/2512 17012KT P6SM -SHRA BKN040 BKN050
      TEMPO 2412/2416 BKN006
     FM241800 15011KT 6SM -SHRA BR VCTS SCT020 OVC035CB
      TEMPO 2422/2501 2SM -TSRA OVC020CB
     FM250100 20006KT 5SM -SHRA VCTS BKN012CB OVC030
     FM250500 18006KT P6SM FEW040 SCT250=



000
FTUS43 KSGF 241100
TAFSGF
TAF
KSGF 241130Z 2412/2512 15014KT P6SM -SHRA BKN025 OVC050
      WS020/19045KT
     FM241500 17013G22KT P6SM -SHRA BKN035 OVC080
     FM241800 16014G22KT 6SM -SHRA BR VCTS OVC025CB
      TEMPO 2423/2503 4SM -TSRA OVC020CB
     FM250300 22008KT P6SM -SHRA VCTS BKN005 OVC020CB
     FM250700 18006KT P6SM FEW030 BKN250=



000
FTUS43 KSGF 241100
TAFJLN
TAF
KJLN 241130Z 2412/2512 17012KT P6SM -SHRA BKN040 BKN050
      TEMPO 2412/2416 BKN006
     FM241800 15011KT 6SM -SHRA BR VCTS SCT020 OVC035CB
      TEMPO 2422/2501 2SM -TSRA OVC020CB
     FM250100 20006KT 5SM -SHRA VCTS BKN012CB OVC030
     FM250500 18006KT P6SM FEW040 SCT250=



000
FTUS43 KSGF 241000 AAC
TAFJLN
TAF AMD
KJLN 241047Z 2411/2506 17011KT P6SM -SHRA SCT006 BKN050 OVC100
      TEMPO 2412/2416 BKN006
     FM241800 15011KT 6SM -SHRA BR VCTS SCT020 OVC035CB
      TEMPO 2422/2502 4SM -TSRA OVC020CB=



000
FTUS43 KSGF 241000 AAC
TAFJLN
TAF AMD
KJLN 241047Z 2411/2506 17011KT P6SM -SHRA SCT006 BKN050 OVC100
      TEMPO 2412/2416 BKN006
     FM241800 15011KT 6SM -SHRA BR VCTS SCT020 OVC035CB
      TEMPO 2422/2502 4SM -TSRA OVC020CB=



000
FTUS43 KSGF 241000 AAB
TAFSGF
TAF AMD
KSGF 241041Z 2411/2506 15014KT P6SM -SHRA BKN050 OVC100
      WS020/19045KT
     FM241500 17013G22KT P6SM -SHRA BKN035 OVC080
     FM241800 16014G22KT 6SM -SHRA BR VCTS OVC025CB
      TEMPO 2423/2503 4SM -TSRA OVC020CB=



000
FTUS43 KSGF 240800 AAB
TAFJLN
TAF AMD
KJLN 240841Z 2409/2506 16011G20KT 4SM RA BR VCTS FEW030 SCT050CB
      OVC100 WS020/18045KT
      TEMPO 2409/2412 2SM TSRA BR SCT007 OVC015CB
     FM241200 17014G22KT 4SM -RA BR VCTS SCT007 OVC015CB
     FM241800 17016G24KT 6SM -SHRA BR VCTS SCT020 OVC035CB
      TEMPO 2422/2502 4SM -TSRA OVC020CB=



000
FTUS43 KSGF 240800 AAA
TAFJLN
TAF AMD
KJLN 240840Z 2409/2506 13010KT 4SM RA BR VCTS FEW030 SCT050CB
      OVC100 WS020/18045KT
      TEMPO 2409/2412 2SM TSRA BR SCT007 OVC015CB
     FM241200 17014G22KT 4SM -RA BR VCTS SCT007 OVC015CB
     FM241800 17016G24KT 6SM -SHRA BR VCTS SCT020 OVC035CB
      TEMPO 2422/2502 4SM -TSRA OVC020CB=



000
FTUS43 KSGF 240800 AAA
TAFSGF
TAF AMD
KSGF 240839Z 2409/2506 15016G24KT P6SM VCSH SCT050 OVC100
      WS020/18040KT
      TEMPO 2410/2412 4SM -TSRA BR SCT015 OVC030CB
     FM241200 16014KT 4SM -RA BR VCTS OVC015CB
     FM241800 16014G22KT 6SM -SHRA BR VCTS OVC025CB
      TEMPO 2423/2503 4SM -TSRA OVC020CB=



000
FTUS43 KSGF 240500
TAFJLN
TAF
KJLN 240528Z 2406/2506 13010KT 4SM RA BR VCTS FEW030 SCT050CB
      OVC100 WS020/18045KT
      TEMPO 2408/2412 2SM TSRA BR SCT007 OVC015CB
     FM241200 17014G22KT 4SM -RA BR VCTS SCT007 OVC015CB
     FM241800 17016G24KT 6SM -SHRA BR VCTS SCT020 OVC035CB
      TEMPO 2422/2502 4SM -TSRA OVC020CB=



000
FTUS43 KSGF 240500
TAFSGF
TAF
KSGF 240528Z 2406/2506 15016G24KT P6SM VCSH SCT050 OVC100
      WS020/18040KT
     FM240700 16016G24KT 6SM -SHRA BR VCTS SCT030CB BKN050 OVC100
      WS020/16040KT
      TEMPO 2408/2412 4SM -TSRA BR SCT015 OVC030CB
     FM241200 16014KT 4SM -RA BR VCTS OVC015CB
     FM241800 16014G22KT 6SM -SHRA BR VCTS OVC025CB
      TEMPO 2423/2503 4SM -TSRA OVC020CB=



000
FTUS43 KSGF 240500
TAFJLN
TAF
KJLN 240528Z 2406/2506 13010KT 4SM RA BR VCTS FEW030 SCT050CB
      OVC100 WS020/18045KT
      TEMPO 2408/2412 2SM TSRA BR SCT007 OVC015CB
     FM241200 17014G22KT 4SM -RA BR VCTS SCT007 OVC015CB
     FM241800 17016G24KT 6SM -SHRA BR VCTS SCT020 OVC035CB
      TEMPO 2422/2502 4SM -TSRA OVC020CB=



000
FTUS43 KSGF 240500 AAB
TAFJLN
TAF AMD
KJLN 240500Z 2405/2424 16014KT 4SM RA BR VCTS SCT030CB BKN060
      OVC110 WS020/18045KT
      TEMPO 2408/2412 2SM -TSRA BR SCT007 OVC015CB
     FM241200 17014KT 4SM -RA BR VCTS SCT007 OVC015CB
     FM241800 15012G18KT P6SM VCTS OVC030CB
      TEMPO 2418/2422 5SM -TSRA=



000
FTUS43 KSGF 240500 AAB
TAFJLN
TAF AMD
KJLN 240500Z 2405/2424 16014KT 4SM RA BR VCTS SCT030CB BKN060
      OVC110 WS020/18045KT
      TEMPO 2408/2412 2SM -TSRA BR SCT007 OVC015CB
     FM241200 17014KT 4SM -RA BR VCTS SCT007 OVC015CB
     FM241800 15012G18KT P6SM VCTS OVC030CB
      TEMPO 2418/2422 5SM -TSRA=



000
FTUS43 KSGF 240400 AAA
TAFSGF
TAF AMD
KSGF 240457Z 2405/2424 14016G24KT P6SM VCSH FEW050 OVC100
      WS020/18040KT
     FM240700 16016G24KT 6SM -SHRA BR VCTS SCT030CB BKN050 OVC100
      WS020/16040KT
      TEMPO 2408/2412 4SM -TSRA BR SCT015 OVC030CB
     FM241200 16014KT 4SM -RA BR VCTS OVC015CB
     FM241800 16014G22KT P6SM VCTS OVC025CB
      TEMPO 2418/2422 5SM -TSRA=



000
FTUS43 KSGF 240100 AAA
TAFJLN
TAF AMD
KJLN 240138Z 2402/2424 13009KT P6SM VCTS OVC060CB
     FM240400 15012G22KT 5SM -TSRA OVC030CB
     FM241200 17014G15KT 4SM -RA BR OVC015
     FM241800 15012G18KT P6SM VCTS OVC030CB
      TEMPO 2418/2422 5SM -TSRA=



000
FTUS43 KSGF 240100 AAA
TAFJLN
TAF AMD
KJLN 240138Z 2402/2424 13009KT P6SM VCTS OVC060CB
     FM240400 15012G22KT 5SM -TSRA OVC030CB
     FM241200 17014G15KT 4SM -RA BR OVC015
     FM241800 15012G18KT P6SM VCTS OVC030CB
      TEMPO 2418/2422 5SM -TSRA=



000
FTUS43 KSGF 240100 AAA
TAFSGF
TAF AMD
KSGF 240136Z 2402/2424 14015KT P6SM VCSH OVC060
     FM240300 14016KT P6SM VCTS SCT020CB OVC040
      TEMPO 2403/2406 5SM -TSRA
     FM240600 15015KT 6SM -SHRA VCTS OVC030CB WS020/16040KT
     FM241200 16014KT 4SM -RA BR VCTS OVC015CB
     FM241800 16014G22KT P6SM VCTS OVC025CB
      TEMPO 2418/2422 5SM -TSRA=



000
FTUS43 KSGF 232300
TAFJLN
TAF
KJLN 232335Z 2400/2424 13009KT P6SM VCTS OVC030CB
      TEMPO 2400/2403 4SM -TSRA
     FM240300 15012G22KT 5SM -TSRA OVC015CB
     FM241200 17014G15KT 4SM -RA BR OVC015
     FM241800 15012G18KT P6SM VCTS OVC030CB
      TEMPO 2418/2422 5SM -TSRA=



000
FTUS43 KSGF 232300
TAFSGF
TAF
KSGF 232335Z 2400/2424 16015KT P6SM VCSH OVC060
     FM240300 15016KT P6SM VCTS SCT020CB OVC040
      TEMPO 2403/2406 5SM -TSRA
     FM240600 15015KT 6SM -SHRA VCTS OVC030CB WS020/16040KT
     FM241200 16014KT 4SM -RA BR VCTS OVC015CB
     FM241800 16014G22KT P6SM VCTS OVC025CB
      TEMPO 2418/2422 5SM -TSRA=



000
FTUS43 KSGF 232300
TAFJLN
TAF
KJLN 232335Z 2400/2424 13009KT P6SM VCTS OVC030CB
      TEMPO 2400/2403 4SM -TSRA
     FM240300 15012G22KT 5SM -TSRA OVC015CB
     FM241200 17014G15KT 4SM -RA BR OVC015
     FM241800 15012G18KT P6SM VCTS OVC030CB
      TEMPO 2418/2422 5SM -TSRA=



000
FTUS43 KSGF 232300
TAFSGF
TAF
KSGF 232335Z 2400/2424 16015KT P6SM VCSH OVC060
     FM240300 15016KT P6SM VCTS SCT020CB OVC040
      TEMPO 2403/2406 5SM -TSRA
     FM240600 15015KT 6SM -SHRA VCTS OVC030CB WS020/16040KT
     FM241200 16014KT 4SM -RA BR VCTS OVC015CB
     FM241800 16014G22KT P6SM VCTS OVC025CB
      TEMPO 2418/2422 5SM -TSRA=



000
FTUS43 KSGF 232100 AAC
TAFJLN
TAF AMD
KJLN 232132Z 2322/2418 13007KT P6SM VCTS BKN020CB
      TEMPO 2322/2323 5SM -TSRA OVC025CB
     FM240000 12013G22KT 5SM -SHRA BR VCTS BKN020CB
     FM240800 16012KT 5SM -RA BR VCTS OVC015CB
     FM241600 17014G20KT 5SM -RA BR OVC025=



000
FTUS43 KSGF 231900 AAB
TAFJLN
TAF AMD
KJLN 231916Z 2319/2418 13007KT P6SM VCTS BKN018CB OVC035
      TEMPO 2319/2322 5SM -TSRA OVC025CB
     FM232300 12013G22KT 5SM -SHRA BR VCTS BKN020CB
     FM240800 16012KT 5SM -RA BR VCTS OVC015CB
     FM241600 17014G20KT 5SM -RA BR OVC025=



000
FTUS43 KSGF 231800 AAA
TAFJLN
TAF AMD
KJLN 231825Z 2318/2418 13010KT P6SM VCTS OVC040CB
      TEMPO 2319/2322 5SM -TSRA OVC030CB
     FM240000 12013G22KT 5SM -SHRA BR VCTS BKN020CB
     FM240800 16012KT 5SM -RA BR VCTS OVC015CB
     FM241600 17014G20KT 5SM -RA BR OVC025=



000
FTUS43 KSGF 231800 AAA
TAFSGF
TAF AMD
KSGF 231818Z 2318/2418 16013KT P6SM VCSH BKN025 OVC040
     FM240200 14016KT P6SM -SHRA VCTS SCT030CB OVC100
     FM240900 15014KT 4SM -RA BR VCTS OVC025CB
     FM241400 16014G22KT 5SM -RA BR OVC025=



000
FTUS43 KSGF 231700
TAFSGF
TAF
KSGF 231726Z 2318/2418 14013KT P6SM VCSH BKN040
     FM240200 14016KT P6SM -SHRA VCTS SCT040CB OVC100
     FM240900 15014KT 4SM -RA BR VCTS OVC025CB
     FM241400 16014G22KT 5SM -RA BR OVC025=



000
FTUS43 KSGF 231700
TAFJLN
TAF
KJLN 231726Z 2318/2418 13010KT P6SM VCTS OVC040CB
     FM240000 12013G22KT 5SM -SHRA BR VCTS BKN020CB
     FM240800 16012KT 5SM -RA BR VCTS OVC015CB
     FM241600 17014G20KT 5SM -RA BR OVC025=



000
FTUS43 KSGF 231700
TAFJLN
TAF
KJLN 231726Z 2318/2418 13010KT P6SM VCTS OVC040CB
     FM240000 12013G22KT 5SM -SHRA BR VCTS BKN020CB
     FM240800 16012KT 5SM -RA BR VCTS OVC015CB
     FM241600 17014G20KT 5SM -RA BR OVC025=



000
FTUS43 KSGF 231700
TAFSGF
TAF
KSGF 231726Z 2318/2418 14013KT P6SM VCSH BKN040
     FM240200 14016KT P6SM -SHRA VCTS SCT040CB OVC100
     FM240900 15014KT 4SM -RA BR VCTS OVC025CB
     FM241400 16014G22KT 5SM -RA BR OVC025=



000
FTUS43 KSGF 231100
TAFSGF
TAF
KSGF 231120Z 2312/2412 16010KT P6SM VCSH OVC030
     FM231800 15012KT P6SM VCSH BKN040
     FM240100 14014KT P6SM -SHRA VCTS SCT040CB OVC100
     FM240800 15014KT 6SM -RA VCTS SCT025 OVC050CB=



000
FTUS43 KSGF 231100
TAFJLN
TAF
KJLN 231120Z 2312/2412 13005KT P6SM -SHRA OVC020
     FM231800 13010G18KT P6SM -SHRA VCTS BKN040CB
     FM240100 12008KT 6SM -SHRA BR VCTS SCT020 BKN040CB
     FM240700 16012KT 5SM -RA VCTS OVC015CB=



000
FTUS43 KSGF 231100
TAFSGF
TAF
KSGF 231120Z 2312/2412 16010KT P6SM VCSH OVC030
     FM231800 15012KT P6SM VCSH BKN040
     FM240100 14014KT P6SM -SHRA VCTS SCT040CB OVC100
     FM240800 15014KT 6SM -RA VCTS SCT025 OVC050CB=



000
FTUS43 KSGF 231100
TAFJLN
TAF
KJLN 231120Z 2312/2412 13005KT P6SM -SHRA OVC020
     FM231800 13010G18KT P6SM -SHRA VCTS BKN040CB
     FM240100 12008KT 6SM -SHRA BR VCTS SCT020 BKN040CB
     FM240700 16012KT 5SM -RA VCTS OVC015CB=



000
FTUS43 KSGF 230500
TAFJLN
TAF
KJLN 230520Z 2306/2406 12007KT P6SM OVC040
     FM230800 12007KT P6SM VCSH SCT025 OVC040
      TEMPO 2310/2314 6SM -SHRA BR OVC025
     FM231800 14010KT P6SM -SHRA VCTS BKN040CB
     FM240100 12007KT 6SM -SHRA BR VCTS BKN040CB=



000
FTUS43 KSGF 230500
TAFSGF
TAF
KSGF 230520Z 2306/2406 15010KT P6SM OVC040
     FM231000 14008KT P6SM VCSH SCT020 OVC040
     FM231800 15010KT P6SM BKN040 PROB30 2318/2324 P6SM -TSRA
      OVC040CB
     FM240100 13014KT P6SM SCT040 OVC100=



000
FTUS43 KSGF 222300
TAFJLN
TAF
KJLN 222320Z 2300/2324 12007KT P6SM BKN060
     FM230600 14008KT P6SM VCSH OVC050
     FM231800 15010KT P6SM BKN040 PROB30 2318/2324 P6SM -TSRA
      OVC040CB=



000
FTUS43 KSGF 222300
TAFSGF
TAF
KSGF 222320Z 2300/2324 12008KT P6SM BKN060
     FM230600 14009KT P6SM VCSH OVC050
     FM231800 15010KT P6SM BKN040 PROB30 2318/2324 P6SM -TSRA
      OVC040CB=



000
FTUS43 KSGF 222300
TAFJLN
TAF
KJLN 222320Z 2300/2324 12007KT P6SM BKN060
     FM230600 14008KT P6SM VCSH OVC050
     FM231800 15010KT P6SM BKN040 PROB30 2318/2324 P6SM -TSRA
      OVC040CB=



000
FTUS43 KSGF 222300
TAFSGF
TAF
KSGF 222320Z 2300/2324 12008KT P6SM BKN060
     FM230600 14009KT P6SM VCSH OVC050
     FM231800 15010KT P6SM BKN040 PROB30 2318/2324 P6SM -TSRA
      OVC040CB=



000
FTUS43 KSGF 221700
TAFSGF
TAF
KSGF 221722Z 2218/2318 16007KT P6SM FEW100 BKN250
     FM222000 12006KT P6SM VCSH OVC100
     FM222300 14006KT P6SM -SHRA OVC100
     FM230600 14008KT P6SM VCSH OVC050=



000
FTUS43 KSGF 221700
TAFSGF
TAF
KSGF 221722Z 2218/2318 16007KT P6SM FEW100 BKN250
     FM222000 12006KT P6SM VCSH OVC100
     FM222300 14006KT P6SM -SHRA OVC100
     FM230600 14008KT P6SM VCSH OVC050=



000
FTUS43 KSGF 221700
TAFJLN
TAF
KJLN 221722Z 2218/2318 14007KT P6SM SCT100 BKN250
     FM221900 12005KT P6SM VCSH BKN050 OVC100
     FM222200 VRB03KT P6SM -SHRA SCT030 OVC050
     FM230600 13006KT P6SM VCSH SCT030 OVC050=



000
FTUS43 KSGF 221700
TAFJLN
TAF
KJLN 221722Z 2218/2318 14007KT P6SM SCT100 BKN250
     FM221900 12005KT P6SM VCSH BKN050 OVC100
     FM222200 VRB03KT P6SM -SHRA SCT030 OVC050
     FM230600 13006KT P6SM VCSH SCT030 OVC050=



000
FTUS43 KSGF 221100
TAFJLN
TAF
KJLN 221137Z 2212/2312 VRB04KT P6SM SCT250
     FM221400 12008KT P6SM SCT100 BKN250
     FM222100 34005KT P6SM VCSH BKN050 OVC100
     FM230100 VRB03KT P6SM -SHRA SCT030 OVC050=



000
FTUS43 KSGF 221100
TAFSGF
TAF
KSGF 221137Z 2212/2312 VRB04KT P6SM FEW250
     FM221400 15008KT P6SM FEW100 BKN250
     FM230000 10005KT P6SM VCSH BKN050 OVC100
     FM230600 14006KT P6SM -SHRA OVC050=



000
FTUS43 KSGF 221100
TAFJLN
TAF
KJLN 221137Z 2212/2312 VRB04KT P6SM SCT250
     FM221400 12008KT P6SM SCT100 BKN250
     FM222100 34005KT P6SM VCSH BKN050 OVC100
     FM230100 VRB03KT P6SM -SHRA SCT030 OVC050=



000
FTUS43 KSGF 221100
TAFSGF
TAF
KSGF 221137Z 2212/2312 VRB04KT P6SM FEW250
     FM221400 15008KT P6SM FEW100 BKN250
     FM230000 10005KT P6SM VCSH BKN050 OVC100
     FM230600 14006KT P6SM -SHRA OVC050=



000
FTUS43 KSGF 220500
TAFSGF
TAF
KSGF 220520Z 2206/2306 00000KT P6SM FEW250
     FM221400 14008KT P6SM FEW100 BKN250
     FM230000 12007KT P6SM BKN050 OVC100=



000
FTUS43 KSGF 220500
TAFSGF
TAF
KSGF 220520Z 2206/2306 00000KT P6SM FEW250
     FM221400 14008KT P6SM FEW100 BKN250
     FM230000 12007KT P6SM BKN050 OVC100=



000
FTUS43 KSGF 220500
TAFJLN
TAF
KJLN 220520Z 2206/2306 00000KT P6SM FEW250
     FM221400 12008KT P6SM SCT100 BKN250
     FM222100 VRB06KT P6SM -SHRA BKN050 OVC100
     FM230100 08003KT P6SM SCT030 OVC050=



000
FTUS43 KSGF 220500
TAFJLN
TAF
KJLN 220520Z 2206/2306 00000KT P6SM FEW250
     FM221400 12008KT P6SM SCT100 BKN250
     FM222100 VRB06KT P6SM -SHRA BKN050 OVC100
     FM230100 08003KT P6SM SCT030 OVC050=



000
FTUS43 KSGF 212300
TAFSGF
TAF
KSGF 212323Z 2200/2224 01006KT P6SM SKC
     FM221200 14005KT P6SM SCT250
     FM221800 14008KT P6SM OVC100=



000
FTUS43 KSGF 212300
TAFJLN
TAF
KJLN 212323Z 2200/2224 02005KT P6SM SKC
     FM221100 12008KT P6SM SCT250
     FM221700 15006KT P6SM -SHRA OVC100=



000
FTUS43 KSGF 212300
TAFSGF
TAF
KSGF 212323Z 2200/2224 01006KT P6SM SKC
     FM221200 14005KT P6SM SCT250
     FM221800 14008KT P6SM OVC100=



000
FTUS43 KSGF 212300
TAFJLN
TAF
KJLN 212323Z 2200/2224 02005KT P6SM SKC
     FM221100 12008KT P6SM SCT250
     FM221700 15006KT P6SM -SHRA OVC100=



000
FTUS43 KSGF 211700
TAFJLN
TAF
KJLN 211727Z 2118/2218 02007KT P6SM BKN035
     FM212330 VRB05KT P6SM SKC
     FM221345 15008KT P6SM SCT250=



000
FTUS43 KSGF 211700
TAFSGF
TAF
KSGF 211727Z 2118/2218 02007KT P6SM BKN035
     FM212330 VRB05KT P6SM SKC
     FM221345 15008KT P6SM SCT250=



    US Dept of Commerce
    National Oceanic and Atmospheric Administration
    National Weather Service
    1325 East West Highway
    Silver Spring, MD 20910
    Page Author: NWS Internet Services Team
Disclaimer
Information Quality
Credits
Glossary
Privacy Policy
Freedom of Information Act (FOIA)
About Us
Career Opportunities